Time;durP1;ratioP1;P1;durP2;ratioP2;P2;SDS_P1;SDS_P2;PMS_P1;PMS_P2;Temp;Humidity;BMP_temperature;BMP_pressure;BME280_temperature;BME280_humidity;BME280_pressure;Samples;Min_cycle;Max_cycle;Signal;HPM_P1;HPM_P2
2023/07/14 00:00:17;;;;;;;2.63;1.37;;;;;;;17.14;50.85;99127.53;5114337;28;40837;-84
2023/07/14 00:02:47;;;;;;;1.67;1.20;;;;;;;16.99;51.09;99107.41;5114288;28;40721;-82
2023/07/14 00:05:18;;;;;;;2.73;1.30;;;;;;;17.08;51.08;99128.03;5113611;28;42483;-83
2023/07/14 00:07:49;;;;;;;2.03;1.10;;;;;;;16.95;51.45;99117.50;5097161;28;42544;-83
2023/07/14 00:10:21;;;;;;;1.03;0.80;;;;;;;17.01;51.15;99125.03;5096890;28;39076;-82
2023/07/14 00:12:50;;;;;;;2.00;1.10;;;;;;;16.78;51.29;99105.56;5097020;28;40198;-83
2023/07/14 00:15:18;;;;;;;1.57;1.20;;;;;;;16.88;51.67;99124.38;5096890;28;42906;-84
2023/07/14 00:17:46;;;;;;;1.43;1.07;;;;;;;16.86;51.81;99124.50;5113881;28;40983;-83
2023/07/14 00:20:22;;;;;;;3.10;1.10;;;;;;;16.75;51.63;99111.19;5096438;28;38986;-81
2023/07/14 00:22:52;;;;;;;1.53;1.10;;;;;;;16.77;52.02;99125.28;5097085;28;41736;-81
2023/07/14 00:25:22;;;;;;;1.60;1.10;;;;;;;16.75;52.13;99126.38;5096452;28;41639;-81
2023/07/14 00:27:50;;;;;;;4.53;1.40;;;;;;;16.70;51.99;99121.41;5096533;28;41066;-81
2023/07/14 00:30:20;;;;;;;1.30;1.10;;;;;;;16.69;51.97;99124.22;5096403;28;39844;-82
2023/07/14 00:32:50;;;;;;;1.93;1.20;;;;;;;16.53;52.12;99101.41;5114092;28;42175;-80
2023/07/14 00:35:24;;;;;;;2.40;1.20;;;;;;;16.63;52.13;99117.56;5113470;28;41654;-81
2023/07/14 00:37:58;;;;;;;2.43;1.30;;;;;;;16.60;52.02;99117.75;5096805;28;42729;-82
2023/07/14 00:40:30;;;;;;;1.30;1.20;;;;;;;16.57;52.25;99107.31;5096479;28;38969;-85
2023/07/14 00:42:59;;;;;;;1.57;1.27;;;;;;;16.55;51.89;99113.78;5097089;28;40898;-80
2023/07/14 00:45:30;;;;;;;1.57;1.30;;;;;;;16.51;52.12;99113.19;5095973;28;42866;-80
2023/07/14 00:48:03;;;;;;;1.10;1.00;;;;;;;16.36;52.31;99093.06;5111591;28;42321;-81
2023/07/14 00:50:39;;;;;;;2.30;1.30;;;;;;;16.46;52.60;99115.38;5113904;28;40938;-82
2023/07/14 00:53:16;;;;;;;1.97;1.20;;;;;;;16.11;52.53;99056.81;5110897;28;42693;-80
2023/07/14 00:55:46;;;;;;;1.53;1.27;;;;;;;16.42;52.85;99111.28;5113552;28;42191;-81
2023/07/14 00:58:20;;;;;;;1.40;1.13;;;;;;;16.40;53.38;99105.22;5096308;28;41460;-81
2023/07/14 01:01:08;;;;;;;2.30;1.50;;;;;;;16.31;53.72;99088.13;5096623;28;38564;-81
2023/07/14 01:03:39;;;;;;;1.77;1.50;;;;;;;16.41;53.39;99106.91;5110323;28;41893;-83
2023/07/14 01:06:13;;;;;;;1.80;1.20;;;;;;;16.40;53.69;99102.53;5096263;28;43129;-81
2023/07/14 01:08:48;;;;;;;2.47;1.50;;;;;;;16.19;53.83;99069.56;5096436;28;41357;-81
2023/07/14 01:11:19;;;;;;;2.47;1.50;;;;;;;16.31;53.73;99084.59;5111189;28;40871;-80
2023/07/14 01:13:48;;;;;;;1.40;1.30;;;;;;;16.27;53.84;99086.66;5111586;28;42406;-82
2023/07/14 01:16:16;;;;;;;1.40;1.30;;;;;;;16.24;54.07;99088.72;5113290;28;42716;-81
2023/07/14 01:18:44;;;;;;;1.53;1.27;;;;;;;16.20;54.21;99087.25;5095475;28;41282;-81
2023/07/14 01:21:12;;;;;;;2.00;1.20;;;;;;;16.27;54.22;99099.16;5095992;28;39913;-83
2023/07/14 01:23:53;;;;;;;1.77;1.30;;;;;;;16.10;54.29;99072.00;5112871;28;41684;-81
2023/07/14 01:26:30;;;;;;;2.20;1.40;;;;;;;16.08;54.00;99073.94;5096026;28;42855;-83
2023/07/14 01:28:59;;;;;;;1.97;1.37;;;;;;;16.08;54.15;99084.63;5110108;28;42239;-82
2023/07/14 01:31:27;;;;;;;2.03;1.53;;;;;;;16.12;54.27;99096.78;5095828;28;39994;-82
2023/07/14 01:33:56;;;;;;;2.47;1.37;;;;;;;16.10;54.50;99093.38;5095544;28;40221;-83
2023/07/14 01:36:25;;;;;;;1.90;1.20;;;;;;;16.06;54.73;99091.09;5095557;28;42080;-81
2023/07/14 01:38:55;;;;;;;1.53;1.37;;;;;;;15.92;54.71;99073.50;5095319;28;42134;-82
2023/07/14 01:41:23;;;;;;;3.27;1.30;;;;;;;16.00;54.69;99092.44;5095671;28;38920;-81
2023/07/14 01:43:55;;;;;;;1.43;1.30;;;;;;;15.97;54.62;99089.16;5095163;28;41871;-81
2023/07/14 01:46:25;;;;;;;1.67;1.40;;;;;;;15.82;54.88;99072.56;5112405;28;41802;-81
2023/07/14 01:49:03;;;;;;;1.67;1.30;;;;;;;15.82;55.13;99075.22;5113381;28;42162;-82
2023/07/14 01:51:38;;;;;;;1.67;1.37;;;;;;;15.84;55.38;99083.94;5095527;28;39118;-82
2023/07/14 01:54:27;;;;;;;1.60;1.50;;;;;;;15.79;55.71;99083.47;5095488;28;40668;-80
2023/07/14 01:56:59;;;;;;;1.40;1.30;;;;;;;15.61;55.48;99063.56;5094613;28;41763;-81
2023/07/14 01:59:31;;;;;;;1.30;1.20;;;;;;;15.69;55.56;99079.84;5112344;28;42309;-81
2023/07/14 02:02:03;;;;;;;1.47;1.20;;;;;;;15.60;55.64;99076.06;5095641;28;39274;-81
2023/07/14 02:04:33;;;;;;;1.80;1.30;;;;;;;15.50;55.73;99060.88;5112517;28;40585;-82
2023/07/14 02:07:02;;;;;;;1.90;1.40;;;;;;;15.54;55.93;99083.69;5095231;28;41808;-80
2023/07/14 02:09:33;;;;;;;2.00;1.30;;;;;;;15.50;55.75;99090.25;5111828;28;42325;-82
2023/07/14 02:12:04;;;;;;;1.80;1.30;;;;;;;15.37;55.79;99071.69;5111986;28;41034;-82
2023/07/14 02:14:40;;;;;;;1.30;1.20;;;;;;;15.41;56.29;99084.66;5112389;28;40780;-81
2023/07/14 02:17:19;;;;;;;1.63;1.30;;;;;;;15.37;56.35;99085.88;5109083;28;42772;-81
2023/07/14 02:19:47;;;;;;;2.00;1.50;;;;;;;15.22;56.16;99079.06;5094813;28;42192;-80
2023/07/14 02:22:16;;;;;;;2.23;1.57;;;;;;;15.25;56.28;99088.66;5095190;28;40118;-81
2023/07/14 02:24:44;;;;;;;4.83;2.67;;;;;;;15.03;56.42;99052.13;5094520;28;40760;-82
2023/07/14 02:27:12;;;;;;;1.70;1.57;;;;;;;15.11;56.22;99071.03;5094776;28;41907;-80
2023/07/14 02:29:40;;;;;;;2.27;1.30;;;;;;;15.21;56.44;99093.38;5111606;28;41087;-80
2023/07/14 02:32:17;;;;;;;1.60;1.33;;;;;;;15.19;56.63;99095.31;5095141;28;39351;-82
2023/07/14 02:34:51;;;;;;;2.00;1.40;;;;;;;15.15;57.04;99087.66;5094730;28;41668;-83
2023/07/14 02:38:03;;;;;;;1.53;1.23;;;;;;;15.12;57.52;99083.41;5094888;28;41706;-80
2023/07/14 02:40:36;;;;;;;1.93;1.40;;;;;;;15.01;56.86;99072.72;5094777;28;40646;-80
2023/07/14 02:43:09;;;;;;;1.83;1.10;;;;;;;15.03;57.48;99079.66;5108843;28;40989;-84
2023/07/14 02:45:41;;;;;;;1.57;1.30;;;;;;;14.94;57.98;99063.50;5094451;28;42443;-80
2023/07/14 02:48:15;;;;;;;1.77;1.37;;;;;;;14.90;57.64;99062.03;5094552;28;41722;-80
2023/07/14 02:50:43;;;;;;;1.60;1.20;;;;;;;15.01;57.88;99086.06;5093979;28;42237;-81
2023/07/14 02:53:11;;;;;;;2.17;1.47;;;;;;;14.99;57.65;99094.19;5094479;28;40128;-82
2023/07/14 02:55:39;;;;;;;1.60;1.37;;;;;;;14.81;57.75;99063.59;5110949;28;40789;-80
2023/07/14 02:58:06;;;;;;;1.30;1.07;;;;;;;14.83;58.04;99071.50;5111605;28;42985;-82
2023/07/14 03:00:34;;;;;;;1.53;1.40;;;;;;;14.88;58.48;99086.16;5093825;28;41183;-80
2023/07/14 03:03:02;;;;;;;1.63;1.17;;;;;;;14.59;58.84;99040.38;5111590;28;40065;-81
2023/07/14 03:05:32;;;;;;;1.50;1.40;;;;;;;14.78;59.13;99086.97;5111057;28;42424;-82
2023/07/14 03:08:00;;;;;;;2.97;1.60;;;;;;;14.76;58.89;99086.25;5093824;27;42927;-83
2023/07/14 03:10:28;;;;;;;1.53;1.43;;;;;;;14.70;58.69;99077.75;5093201;28;42276;-83
2023/07/14 03:12:56;;;;;;;1.60;1.30;;;;;;;14.70;58.55;99088.41;5094205;28;39194;-82
2023/07/14 03:15:24;;;;;;;2.13;1.57;;;;;;;14.57;58.84;99076.97;5110734;28;41138;-81
2023/07/14 03:17:52;;;;;;;3.93;1.60;;;;;;;14.65;59.04;99079.91;5111280;28;42815;-82
2023/07/14 03:20:20;;;;;;;2.80;1.70;;;;;;;14.58;59.23;99070.69;5093854;28;41578;-81
2023/07/14 03:22:49;;;;;;;1.50;1.20;;;;;;;14.56;59.40;99072.63;5094209;28;39200;-80
2023/07/14 03:25:17;;;;;;;1.47;1.23;;;;;;;14.65;59.38;99090.56;5093866;28;41782;-80
2023/07/14 03:27:46;;;;;;;1.40;1.30;;;;;;;14.65;59.51;99087.91;5093780;28;41835;-79
2023/07/14 03:30:14;;;;;;;1.60;1.13;;;;;;;14.59;59.37;99080.34;5093862;28;41998;-82
2023/07/14 03:32:42;;;;;;;2.30;1.60;;;;;;;14.54;61.04;99050.56;5094111;28;38900;-83
2023/07/14 03:35:10;;;;;;;2.60;1.50;;;;;;;14.68;60.48;99074.34;5093970;28;40904;-81
2023/07/14 03:37:38;;;;;;;2.37;1.67;;;;;;;14.61;60.35;99065.09;5111278;28;42855;-81
2023/07/14 03:40:10;;;;;;;1.73;1.37;;;;;;;14.64;60.46;99067.53;5093820;28;42708;-81
2023/07/14 03:42:39;;;;;;;1.43;1.30;;;;;;;14.69;60.05;99070.72;5112184;27;39477;-81
2023/07/14 03:45:07;;;;;;;3.93;1.83;;;;;;;14.69;60.30;99077.88;5093557;28;40669;-85
2023/07/14 03:47:36;;;;;;;1.80;1.30;;;;;;;14.68;60.02;99079.69;5107761;28;44057;-85
2023/07/14 03:50:04;;;;;;;1.40;1.30;;;;;;;14.59;59.83;99060.84;5092549;28;40841;-85
2023/07/14 03:52:32;;;;;;;2.17;1.50;;;;;;;14.54;60.13;99055.03;5089523;28;41259;-79
2023/07/14 03:54:59;;;;;;;1.20;1.10;;;;;;;14.69;60.11;99083.19;5109893;28;41803;-81
2023/07/14 03:57:28;;;;;;;1.57;1.47;;;;;;;14.59;60.34;99064.38;5106544;27;41732;-78
2023/07/14 03:59:57;;;;;;;2.47;1.27;;;;;;;14.72;60.59;99074.94;5131515;27;42484;-80
2023/07/14 04:02:25;;;;;;;2.20;2.00;;;;;;;14.77;60.27;99071.94;5113306;27;38464;-83
2023/07/14 04:04:53;;;;;;;2.30;1.33;;;;;;;14.72;60.06;99065.13;5113968;27;40748;-82
2023/07/14 04:07:20;;;;;;;1.83;1.30;;;;;;;14.83;60.05;99066.16;5113322;27;42513;-84
2023/07/14 04:09:50;;;;;;;1.20;1.10;;;;;;;14.92;60.12;99057.44;5111882;27;42203;-90
2023/07/14 04:12:18;;;;;;;2.63;1.33;;;;;;;15.04;60.01;99061.84;5129517;27;40101;-83
2023/07/14 04:14:47;;;;;;;4.90;1.90;;;;;;;15.16;61.15;99060.88;5113354;27;40775;-85
2023/07/14 04:17:15;;;;;;;2.10;1.50;;;;;;;15.05;60.97;99026.19;5113830;27;41388;-87
2023/07/14 04:19:43;;;;;;;1.87;1.70;;;;;;;15.46;60.84;99066.44;5113694;27;41451;-86
2023/07/14 04:22:11;;;;;;;3.07;1.60;;;;;;;15.52;60.85;99053.59;5134210;27;40246;-84
2023/07/14 04:24:38;;;;;;;2.60;1.57;;;;;;;15.57;60.45;99051.47;5117392;27;40597;-86
2023/07/14 04:27:06;;;;;;;2.30;1.53;;;;;;;15.57;60.38;99038.13;5116803;27;41840;-83
2023/07/14 04:29:34;;;;;;;2.17;1.47;;;;;;;15.74;60.27;99049.13;5117081;27;41186;-85
2023/07/14 04:32:04;;;;;;;1.40;1.30;;;;;;;15.95;59.89;99067.06;5117670;27;39048;-84
2023/07/14 04:34:33;;;;;;;3.60;1.60;;;;;;;16.09;60.45;99070.28;5134345;27;41037;-84
2023/07/14 04:37:01;;;;;;;2.00;1.60;;;;;;;16.24;60.76;99068.19;5117352;27;41515;-88
2023/07/14 04:39:29;;;;;;;2.67;1.60;;;;;;;16.27;61.07;99045.72;5116425;27;42306;-86
2023/07/14 04:41:57;;;;;;;2.70;1.83;;;;;;;16.40;61.04;99049.06;5133681;27;40227;-84
2023/07/14 04:44:25;;;;;;;2.03;1.83;;;;;;;16.51;61.45;99057.88;5116528;27;40872;-85
2023/07/14 04:46:53;;;;;;;2.40;1.90;;;;;;;16.52;60.80;99048.06;5117040;27;41703;-88
2023/07/14 04:49:23;;;;;;;2.47;1.87;;;;;;;16.45;60.39;99022.78;5116617;27;42411;-85
2023/07/14 04:51:51;;;;;;;3.27;1.57;;;;;;;16.63;60.26;99048.03;5117113;27;38807;-84
2023/07/14 04:54:19;;;;;;;2.10;1.90;;;;;;;16.52;60.50;99024.00;5116722;27;40551;-87
2023/07/14 04:56:46;;;;;;;1.80;1.40;;;;;;;16.78;60.85;99046.75;5133874;27;42804;-85
2023/07/14 04:59:14;;;;;;;1.60;1.50;;;;;;;16.86;60.44;99065.66;5116513;27;41400;-86
2023/07/14 05:01:42;;;;;;;1.60;1.23;;;;;;;17.04;60.19;99065.91;5116627;27;38963;-87
2023/07/14 05:04:10;;;;;;;2.30;1.40;;;;;;;17.09;59.67;99060.16;5133293;27;41756;-84
2023/07/14 05:06:40;;;;;;;3.60;2.13;;;;;;;17.13;60.10;99051.72;5116349;27;42881;-86
2023/07/14 05:09:08;;;;;;;2.40;1.77;;;;;;;17.26;60.07;99051.53;5133501;27;41245;-86
2023/07/14 05:11:38;;;;;;;2.63;1.70;;;;;;;17.37;59.65;99045.22;5116367;27;40356;-84
2023/07/14 05:14:06;;;;;;;3.87;1.80;;;;;;;17.60;59.60;99066.31;5109630;27;41963;-79
2023/07/14 05:16:33;;;;;;;1.90;1.60;;;;;;;17.72;59.43;99068.94;5115185;27;42085;-80
2023/07/14 05:19:01;;;;;;;2.07;1.70;;;;;;;17.84;59.05;99067.84;5131221;27;42629;-83
2023/07/14 05:21:29;;;;;;;2.37;1.60;;;;;;;17.88;59.20;99058.56;5115638;27;40068;-79
2023/07/14 05:23:58;;;;;;;2.30;1.70;;;;;;;18.03;59.19;99062.56;5111869;27;40688;-81
2023/07/14 05:26:25;;;;;;;2.17;1.87;;;;;;;18.14;58.93;99057.06;5132893;27;43451;-83
2023/07/14 05:28:53;;;;;;;2.53;1.70;;;;;;;18.21;58.36;99060.88;5115242;27;41357;-87
2023/07/14 05:31:21;;;;;;;2.87;1.77;;;;;;;18.24;58.47;99049.88;5115606;27;40276;-88
2023/07/14 05:33:49;;;;;;;3.30;1.97;;;;;;;18.40;58.04;99053.84;5111959;28;40848;-88
2023/07/14 05:36:16;;;;;;;2.83;2.10;;;;;;;18.67;57.66;99070.94;5112926;28;43643;-87
2023/07/14 05:38:44;;;;;;;3.70;1.90;;;;;;;18.84;56.93;99058.66;5117146;27;42343;-83
2023/07/14 05:41:13;;;;;;;2.00;1.83;;;;;;;19.14;56.14;99071.06;5133463;27;39146;-82
2023/07/14 05:43:41;;;;;;;2.70;1.90;;;;;;;19.36;55.96;99069.88;5133338;27;41678;-83
2023/07/14 05:46:09;;;;;;;4.07;2.47;;;;;;;19.64;54.97;99077.00;5099072;27;41509;-81
2023/07/14 05:48:36;;;;;;;2.90;1.90;;;;;;;20.04;54.31;99086.56;5132900;27;42252;-83
2023/07/14 05:51:04;;;;;;;2.93;2.10;;;;;;;20.35;53.52;99087.09;5114981;27;38967;-80
2023/07/14 05:53:32;;;;;;;3.07;1.83;;;;;;;20.56;52.47;99084.97;5131288;27;40366;-81
2023/07/14 05:56:00;;;;;;;4.17;2.13;;;;;;;20.64;52.42;99070.78;5133074;27;43696;-81
2023/07/14 05:58:29;;;;;;;2.80;1.63;;;;;;;20.93;51.96;99084.78;5132114;27;42888;-82
2023/07/14 06:00:56;;;;;;;4.00;2.00;;;;;;;21.06;51.20;99090.63;5115291;27;39301;-84
2023/07/14 06:03:24;;;;;;;3.20;1.87;;;;;;;21.17;50.59;99100.28;5114534;27;40458;-82
2023/07/14 06:05:52;;;;;;;3.17;1.90;;;;;;;21.28;50.68;99096.53;5115129;27;43265;-83
2023/07/14 06:08:20;;;;;;;4.03;1.80;;;;;;;21.40;50.50;99096.09;5114358;27;42374;-80
2023/07/14 06:10:47;;;;;;;2.47;1.60;;;;;;;21.58;50.24;99103.31;5131766;27;38943;-82
2023/07/14 06:13:15;;;;;;;3.77;2.00;;;;;;;21.61;50.39;99084.13;5114632;27;41138;-82
2023/07/14 06:15:48;;;;;;;2.70;1.70;;;;;;;21.86;50.69;99099.41;5131681;27;42770;-81
2023/07/14 06:18:15;;;;;;;2.50;1.90;;;;;;;21.97;49.87;99104.53;5114230;27;41196;-82
2023/07/14 06:20:44;;;;;;;2.97;1.73;;;;;;;22.08;49.15;99103.41;5114351;27;40987;-82
2023/07/14 06:23:12;;;;;;;3.37;2.20;;;;;;;22.19;49.11;99105.81;5131745;27;41888;-82
2023/07/14 06:25:40;;;;;;;3.30;2.10;;;;;;;22.30;48.62;99113.59;5130723;27;42636;-83
2023/07/14 06:28:07;;;;;;;3.23;1.50;;;;;;;22.43;48.66;99097.78;5114825;27;41086;-83
2023/07/14 06:30:36;;;;;;;5.67;1.87;;;;;;;22.55;48.14;99101.84;5093833;28;38815;-79
2023/07/14 06:33:05;;;;;;;3.30;1.40;;;;;;;22.67;47.89;99098.84;5111020;28;42813;-81
2023/07/14 06:35:33;;;;;;;4.60;1.90;;;;;;;22.85;47.87;99096.88;5130859;27;43138;-80
2023/07/14 06:38:00;;;;;;;4.73;1.97;;;;;;;22.98;47.09;99094.53;5131869;27;42453;-83
2023/07/14 06:40:28;;;;;;;2.63;1.80;;;;;;;23.03;46.47;99089.44;5113654;27;38885;-82
2023/07/14 06:43:00;;;;;;;2.43;1.67;;;;;;;23.22;46.46;99081.00;5131574;27;41623;-82
2023/07/14 06:45:28;;;;;;;2.37;1.50;;;;;;;23.47;45.69;99089.06;5131900;27;42796;-90
2023/07/14 06:47:56;;;;;;;1.47;1.37;;;;;;;23.75;45.79;99097.63;5114891;27;41124;-81
2023/07/14 06:50:25;;;;;;;2.70;2.00;;;;;;;24.05;45.09;99096.00;5130926;27;40654;-83
2023/07/14 06:52:52;;;;;;;3.60;1.63;;;;;;;24.16;44.26;99087.47;5114405;27;41736;-87
2023/07/14 06:55:20;;;;;;;2.03;1.60;;;;;;;24.22;43.39;99074.13;5130621;27;42926;-80
2023/07/14 06:57:48;;;;;;;2.70;1.50;;;;;;;24.41;43.30;99086.38;5132706;27;43053;-86
2023/07/14 07:00:16;;;;;;;3.80;1.67;;;;;;;24.53;43.37;99093.06;5131335;27;39873;-84
2023/07/14 07:02:44;;;;;;;3.67;1.90;;;;;;;24.56;43.14;99094.56;5114501;27;40945;-84
2023/07/14 07:05:11;;;;;;;4.33;1.50;;;;;;;24.68;43.65;99090.44;5113529;27;41696;-84
2023/07/14 07:07:40;;;;;;;4.37;1.70;;;;;;;24.84;43.24;99078.63;5114353;27;41277;-84
2023/07/14 07:10:09;;;;;;;3.10;1.77;;;;;;;25.02;41.77;99103.56;5113476;27;41023;-83
2023/07/14 07:12:37;;;;;;;2.50;1.50;;;;;;;25.17;41.71;99104.47;5114046;27;41899;-83
2023/07/14 07:15:07;;;;;;;2.90;1.60;;;;;;;25.24;41.52;99088.28;5130338;27;41862;-79
2023/07/14 07:17:34;;;;;;;3.27;1.43;;;;;;;25.41;41.00;99096.09;5131508;27;42314;-84
2023/07/14 07:20:02;;;;;;;3.50;1.93;;;;;;;25.62;41.26;99108.13;5130666;27;40067;-82
2023/07/14 07:22:30;;;;;;;3.43;2.07;;;;;;;25.62;40.42;99089.13;5114070;27;41612;-80
2023/07/14 07:24:59;;;;;;;2.90;2.07;;;;;;;25.83;39.92;99110.94;5130761;27;43507;-82
2023/07/14 07:27:27;;;;;;;2.50;1.80;;;;;;;26.10;40.06;99107.53;5131250;27;42446;-80
2023/07/14 07:29:55;;;;;;;5.03;1.73;;;;;;;26.39;39.66;99105.84;5113105;27;39379;-82
2023/07/14 07:32:22;;;;;;;2.57;1.73;;;;;;;26.62;39.58;99105.69;5131050;27;40523;-80
2023/07/14 07:34:50;;;;;;;3.20;1.50;;;;;;;26.75;39.11;99106.69;5113157;27;41890;-80
2023/07/14 07:37:18;;;;;;;2.93;2.00;;;;;;;26.87;38.66;99098.00;5131713;27;42973;-85
2023/07/14 07:39:45;;;;;;;4.53;2.20;;;;;;;27.03;38.28;99092.34;5114097;27;39891;-84
2023/07/14 07:42:15;;;;;;;2.67;1.70;;;;;;;27.37;38.24;99108.75;5114389;27;40669;-82
2023/07/14 07:44:42;;;;;;;2.80;1.73;;;;;;;27.64;37.60;99100.81;5112863;27;41968;-87
2023/07/14 07:47:10;;;;;;;3.10;2.00;;;;;;;27.66;36.58;99087.84;5114343;27;41236;-86
2023/07/14 07:49:38;;;;;;;4.57;1.77;;;;;;;27.96;36.11;99111.06;5113191;27;40022;-86
2023/07/14 07:52:06;;;;;;;4.00;1.80;;;;;;;28.53;35.27;99107.16;5128090;27;42037;-84
2023/07/14 07:54:34;;;;;;;4.47;1.87;;;;;;;29.77;33.12;99129.34;5131212;27;42911;-84
2023/07/14 07:57:02;;;;;;;3.63;1.50;;;;;;;31.10;32.32;99122.34;5134336;27;42264;-88
2023/07/14 07:59:31;;;;;;;3.70;1.70;;;;;;;31.99;31.02;99117.34;5113313;28;41383;-84
2023/07/14 08:01:58;;;;;;;3.13;1.83;;;;;;;32.76;29.19;99117.72;5131134;27;42663;-82
2023/07/14 08:04:26;;;;;;;4.50;1.80;;;;;;;33.55;28.35;99127.47;5125065;27;42724;-81
2023/07/14 08:06:54;;;;;;;2.90;1.90;;;;;;;33.63;27.89;99123.53;5134118;27;40722;-84
2023/07/14 08:09:22;;;;;;;3.13;1.70;;;;;;;33.61;27.83;99134.75;5116469;27;38919;-83
2023/07/14 08:11:50;;;;;;;2.77;1.40;;;;;;;33.60;28.06;99122.09;5117154;27;40701;-84
2023/07/14 08:14:20;;;;;;;4.73;1.57;;;;;;;34.56;27.40;99129.78;5116173;27;41538;-79
2023/07/14 08:16:49;;;;;;;5.07;1.50;;;;;;;35.97;25.41;99132.59;5116548;27;42572;-84
2023/07/14 08:19:17;;;;;;;2.23;1.40;;;;;;;37.11;24.29;99143.66;5116420;27;38615;-83
2023/07/14 08:21:45;;;;;;;5.40;1.63;;;;;;;37.71;22.47;99154.47;5135224;27;41658;-82
2023/07/14 08:24:12;;;;;;;1.40;1.30;;;;;;;38.13;22.59;99141.78;5134543;27;42771;-83
2023/07/14 08:26:41;;;;;;;1.55;1.25;;;;;;;38.79;21.14;99163.16;5133378;27;42258;-87
2023/07/14 08:29:09;;;;;;;1.17;1.00;;;;;;;39.14;21.27;99147.75;5116019;27;39624;-84
2023/07/14 08:31:37;;;;;;;2.88;1.60;;;;;;;39.28;20.30;99154.41;5134329;27;41705;-85
2023/07/14 08:34:08;;;;;;;1.33;1.00;;;;;;;39.01;20.42;99117.81;5116346;27;42870;-86
2023/07/14 08:36:36;;;;;;;2.25;1.45;;;;;;;39.06;21.14;99143.59;5116709;27;41069;-89
2023/07/14 08:39:03;;;;;;;2.08;1.10;;;;;;;39.02;20.90;99138.84;5099220;27;40342;-85
2023/07/14 08:41:36;;;;;;;2.22;1.20;;;;;;;39.30;20.73;99146.66;5133690;27;40500;-90
2023/07/14 08:44:23;;;;;;;1.98;1.38;;;;;;;39.40;20.08;99130.03;5116222;27;41980;-85
2023/07/14 08:47:04;;;;;;;3.88;1.15;;;;;;;38.85;20.55;99129.91;5130256;27;42411;-87
2023/07/14 08:49:42;;;;;;;1.65;1.17;;;;;;;38.52;20.73;99142.25;5115919;27;40073;-83
2023/07/14 08:52:16;;;;;;;1.85;1.40;;;;;;;37.88;21.28;99103.72;5133730;27;40868;-85
2023/07/14 08:54:47;;;;;;;1.48;1.08;;;;;;;37.51;21.62;99123.06;5111188;27;42882;-79
2023/07/14 08:57:19;;;;;;;2.10;1.05;;;;;;;37.11;21.51;99121.56;5131786;27;43037;-80
2023/07/14 08:59:49;;;;;;;3.83;1.48;;;;;;;36.73;21.74;99116.22;5131897;27;39841;-82
2023/07/14 09:02:22;;;;;;;1.55;1.25;;;;;;;36.34;22.15;99103.34;5116141;27;40562;-79
2023/07/14 09:04:59;;;;;;;2.78;1.20;;;;;;;36.38;22.61;99103.63;5109312;27;43247;-79
2023/07/14 09:07:28;;;;;;;2.92;1.42;;;;;;;36.51;22.16;99107.94;5128811;27;42285;-81
2023/07/14 09:09:56;;;;;;;2.25;1.38;;;;;;;36.63;21.47;99111.38;5133682;27;40172;-83
2023/07/14 09:12:29;;;;;;;2.70;1.33;;;;;;;36.19;21.36;99107.78;5132970;27;42669;-81
2023/07/14 09:15:00;;;;;;;1.63;1.10;;;;;;;36.09;21.28;99096.63;5132145;27;44860;-82
2023/07/14 09:17:43;;;;;;;2.60;1.50;;;;;;;36.36;21.28;99114.09;5132802;27;41419;-82
2023/07/14 09:20:43;;;;;;;2.07;1.27;;;;;;;36.67;21.33;99102.34;5115416;27;38845;-83
2023/07/14 09:23:23;;;;;;;2.33;1.30;;;;;;;36.61;21.34;99097.84;5132818;27;40528;-77
2023/07/14 09:25:57;;;;;;;1.57;1.20;;;;;;;36.19;21.01;99069.19;5132148;27;42103;-82
2023/07/14 09:28:35;;;;;;;3.97;1.53;;;;;;;36.25;21.88;99090.22;5129608;27;43281;-79
2023/07/14 09:31:07;;;;;;;2.00;1.30;;;;;;;36.21;22.17;99089.91;5135578;27;40728;-78
2023/07/14 09:33:46;;;;;;;2.47;1.47;;;;;;;36.42;22.13;99082.72;5125681;27;39883;-81
2023/07/14 09:36:16;;;;;;;1.67;1.30;;;;;;;36.99;21.92;99087.75;5116181;27;41780;-82
2023/07/14 09:38:47;;;;;;;3.07;1.53;;;;;;;37.31;20.90;99080.38;5132237;27;41278;-80
2023/07/14 09:41:17;;;;;;;1.27;1.00;;;;;;;37.62;20.90;99092.50;5131996;27;40048;-77
2023/07/14 09:43:45;;;;;;;2.85;1.33;;;;;;;37.54;20.53;99092.13;5132063;27;40724;-76
2023/07/14 09:46:17;;;;;;;2.45;1.35;;;;;;;37.48;20.75;99087.66;5114529;27;42862;-77
2023/07/14 09:48:48;;;;;;;3.67;1.52;;;;;;;37.13;20.73;99089.00;5130325;27;42344;-80
2023/07/14 09:51:23;;;;;;;1.92;1.40;;;;;;;37.05;20.82;99090.31;5132086;27;38753;-78
2023/07/14 09:53:58;;;;;;;3.63;1.50;;;;;;;37.19;21.14;99082.47;5132324;27;40818;-82
2023/07/14 09:56:31;;;;;;;1.67;1.20;;;;;;;37.85;19.79;99052.53;5129027;27;42852;-82
2023/07/14 09:59:02;;;;;;;1.73;1.30;;;;;;;39.05;18.89;99088.44;5132516;27;41042;-83
2023/07/14 10:01:32;;;;;;;3.22;1.35;;;;;;;39.28;18.95;99075.97;5114660;27;39809;-78
2023/07/14 10:04:12;;;;;;;2.28;1.17;;;;;;;39.06;18.72;99090.13;5131751;27;40444;-84
2023/07/14 10:06:42;;;;;;;2.05;1.33;;;;;;;38.37;19.72;99065.53;5127684;27;42868;-82
2023/07/14 10:09:11;;;;;;;2.55;1.60;;;;;;;38.04;20.35;99078.66;5132905;27;43185;-86
2023/07/14 10:11:43;;;;;;;2.40;1.55;;;;;;;37.86;20.71;99068.03;5114413;27;40004;-88
2023/07/14 10:14:21;;;;;;;2.60;1.52;;;;;;;37.89;20.63;99061.97;5114425;27;40858;-81
2023/07/14 10:16:49;;;;;;;3.20;1.50;;;;;;;37.85;19.92;99054.47;5129460;27;42490;-81
2023/07/14 10:19:19;;;;;;;1.80;1.33;;;;;;;38.06;20.48;99059.03;5131328;27;41166;-81
2023/07/14 10:21:54;;;;;;;3.28;1.35;;;;;;;38.12;20.50;99054.38;5132134;27;40612;-81
2023/07/14 10:24:24;;;;;;;3.58;1.30;;;;;;;38.10;19.77;99054.63;5130639;27;42087;-81
2023/07/14 10:26:53;;;;;;;3.08;1.73;;;;;;;38.05;20.27;99041.59;5131090;27;43177;-81
2023/07/14 10:29:23;;;;;;;3.80;1.50;;;;;;;37.96;19.77;99043.19;5113382;27;40650;-80
2023/07/14 10:31:59;;;;;;;2.40;1.35;;;;;;;37.89;19.66;99041.78;5132597;27;41696;-79
2023/07/14 10:34:49;;;;;;;3.30;1.40;;;;;;;37.73;19.88;99043.63;5129131;27;42606;-79
2023/07/14 10:37:24;;;;;;;2.75;1.35;;;;;;;37.98;20.52;99018.88;5131081;27;43664;-78
2023/07/14 10:39:55;;;;;;;2.42;1.60;;;;;;;38.53;20.02;99028.53;5130527;27;42321;-78
2023/07/14 10:42:27;;;;;;;2.67;1.92;;;;;;;38.79;19.68;99007.25;5114337;27;39887;-79
2023/07/14 10:44:57;;;;;;;2.67;1.55;;;;;;;38.79;19.29;99027.47;5129144;27;41825;-79
2023/07/14 10:47:30;;;;;;;3.05;1.55;;;;;;;38.29;19.39;98997.72;5114040;27;42809;-80
2023/07/14 10:50:05;;;;;;;3.90;2.28;;;;;;;38.46;19.72;99020.44;5129916;27;41386;-81
2023/07/14 10:52:39;;;;;;;2.50;1.48;;;;;;;38.66;19.68;99018.84;5114285;27;38906;-80
2023/07/14 10:55:16;;;;;;;2.28;1.23;;;;;;;38.73;19.42;99009.16;5130670;27;42531;-84
2023/07/14 10:57:50;;;;;;;4.13;1.55;;;;;;;38.59;18.81;99002.50;5114830;27;20204;-79
2023/07/14 11:00:36;;;;;;;3.70;1.73;;;;;;;38.50;19.13;99001.34;5109587;28;41133;-85
2023/07/14 11:03:23;;;;;;;1.65;1.48;;;;;;;38.50;19.55;99009.66;5111163;28;38825;-78
2023/07/14 11:05:56;;;;;;;1.70;1.50;;;;;;;38.47;19.42;98993.59;5131100;27;41774;-83
2023/07/14 11:08:29;;;;;;;4.15;1.27;;;;;;;38.14;19.07;98983.84;5113837;27;41765;-86
2023/07/14 11:11:04;;;;;;;3.30;1.20;;;;;;;38.09;19.14;99001.25;5112902;27;42387;-79
2023/07/14 11:13:39;;;;;;;2.50;1.10;;;;;;;37.69;19.36;98954.06;5113992;27;38939;-79
2023/07/14 11:16:11;;;;;;;4.97;1.38;;;;;;;37.92;19.04;98995.06;5113699;27;40906;-83
2023/07/14 11:18:47;;;;;;;3.85;1.50;;;;;;;37.84;19.46;98981.75;5127848;27;43146;-86
2023/07/14 11:21:25;;;;;;;1.92;1.50;;;;;;;37.58;19.75;98988.25;5127322;27;42483;-81
2023/07/14 11:24:07;;;;;;;2.00;1.20;;;;;;;37.49;20.00;98976.84;5130741;27;41073;-82
2023/07/14 11:26:43;;;;;;;3.55;1.40;;;;;;;37.27;20.33;98954.06;5113306;27;40625;-85
2023/07/14 11:29:15;;;;;;;1.55;1.40;;;;;;;37.44;20.26;98974.06;5130535;27;42814;-83
2023/07/14 11:31:49;;;;;;;2.60;1.38;;;;;;;37.30;20.04;98948.84;5113022;27;41281;-82
2023/07/14 11:34:27;;;;;;;3.13;1.40;;;;;;;37.28;20.19;98964.84;5113878;27;39784;-82
2023/07/14 11:37:15;;;;;;;3.10;1.70;;;;;;;37.18;20.43;98959.28;5110456;28;41475;-84
2023/07/14 11:39:51;;;;;;;2.13;1.30;;;;;;;36.99;20.10;98960.75;5111509;27;42710;-83
2023/07/14 11:42:21;;;;;;;1.97;1.40;;;;;;;36.75;20.60;98948.41;5130756;27;41857;-82
2023/07/14 11:44:52;;;;;;;2.70;1.30;;;;;;;36.58;20.88;98893.34;5130559;27;40981;-85
2023/07/14 11:47:23;;;;;;;4.95;1.70;;;;;;;37.40;20.20;98950.84;5113707;27;40461;-81
2023/07/14 11:49:55;;;;;;;2.10;1.90;;;;;;;38.25;19.62;98965.31;5112249;27;43645;-84